Time;durP1;ratioP1;P1;durP2;ratioP2;P2;SDS_P1;SDS_P2;PMS_P1;PMS_P2;Temp;Humidity;BMP_temperature;BMP_pressure;BME280_temperature;BME280_humidity;BME280_pressure;Samples;Min_cycle;Max_cycle;Signal;HPM_P1;HPM_P2
2022/02/17 00:00:48;;;;;;;;;;;12.90;99.90;;;;;;5074847;28;19909;-79
2022/02/17 00:03:14;;;;;;;;;;;12.90;99.90;;;;;;5056872;28;20338;-79
2022/02/17 00:05:39;;;;;;;;;;;12.90;99.90;;;;;;5056743;28;19922;-78
2022/02/17 00:08:05;;;;;;;;;;;12.90;99.90;;;;;;5074855;28;19909;-79
2022/02/17 00:10:31;;;;;;;;;;;12.90;99.90;;;;;;5074641;28;19908;-79
2022/02/17 00:12:58;;;;;;;;;;;12.90;99.90;;;;;;5074793;28;19909;-79
2022/02/17 00:15:27;;;;;;;;;;;12.90;99.90;;;;;;5074592;28;20376;-80
2022/02/17 00:17:53;;;;;;;;;;;12.90;99.90;;;;;;5074068;28;19920;-80
2022/02/17 00:20:19;;;;;;;;;;;12.90;99.90;;;;;;5074418;28;19995;-79
2022/02/17 00:22:44;;;;;;;;;;;12.90;99.90;;;;;;5074455;28;19909;-79
2022/02/17 00:25:10;;;;;;;;;;;12.90;99.90;;;;;;5074257;28;19908;-79
2022/02/17 00:27:36;;;;;;;;;;;12.90;99.90;;;;;;5056339;28;19915;-79
2022/02/17 00:30:03;;;;;;;;;;;12.90;99.90;;;;;;5074277;28;19909;-79
2022/02/17 00:32:28;;;;;;;;;;;12.90;99.90;;;;;;5074123;28;20334;-80
2022/02/17 00:34:54;;;;;;;;;;;12.90;99.90;;;;;;5074311;28;19913;-80
2022/02/17 00:37:19;;;;;;;;;;;13.00;99.90;;;;;;5074114;28;20296;-80
2022/02/17 00:39:45;;;;;;;;;;;12.90;99.90;;;;;;5074567;28;19909;-79
2022/02/17 00:42:11;;;;;;;;;;;13.00;99.90;;;;;;5073694;28;19923;-80
2022/02/17 00:44:36;;;;;;;;;;;12.90;99.90;;;;;;5074020;28;19912;-80
2022/02/17 00:47:02;;;;;;;;;;;12.90;99.90;;;;;;5074005;28;19978;-78
2022/02/17 00:49:29;;;;;;;;;;;13.00;99.90;;;;;;5073942;28;20388;-80
2022/02/17 00:51:55;;;;;;;;;;;13.00;99.90;;;;;;5073926;28;20379;-80
2022/02/17 00:54:21;;;;;;;;;;;12.90;99.90;;;;;;5055828;28;20364;-79
2022/02/17 00:56:46;;;;;;;;;;;12.80;99.90;;;;;;5073951;28;19916;-78
2022/02/17 00:59:12;;;;;;;;;;;12.70;99.90;;;;;;5073918;28;19909;-78
2022/02/17 01:01:38;;;;;;;;;;;12.60;99.90;;;;;;5073761;28;19923;-79
2022/02/17 01:04:04;;;;;;;;;;;12.50;99.90;;;;;;5073975;28;19908;-78
2022/02/17 01:06:30;;;;;;;;;;;12.50;99.90;;;;;;5073839;28;19965;-80
2022/02/17 01:08:55;;;;;;;;;;;12.40;99.90;;;;;;5073677;28;20262;-79
2022/02/17 01:11:21;;;;;;;;;;;12.40;99.90;;;;;;5073630;28;19915;-79
2022/02/17 01:13:47;;;;;;;;;;;12.40;99.90;;;;;;5073790;28;19909;-79
2022/02/17 01:16:12;;;;;;;;;;;12.40;99.90;;;;;;5052048;28;19924;-78
2022/02/17 01:18:38;;;;;;;;;;;12.30;99.90;;;;;;5053996;28;19944;-79
2022/02/17 01:21:03;;;;;;;;;;;12.40;99.90;;;;;;5053679;28;20368;-79
2022/02/17 01:23:29;;;;;;;;;;;12.40;99.90;;;;;;5053487;28;19909;-79
2022/02/17 01:25:55;;;;;;;;;;;12.40;99.90;;;;;;5053518;28;19912;-79
2022/02/17 01:28:21;;;;;;;;;;;12.40;99.90;;;;;;5053496;28;19912;-80
2022/02/17 01:30:46;;;;;;;;;;;12.30;99.90;;;;;;5053465;28;19908;-79
2022/02/17 01:33:12;;;;;;;;;;;12.30;99.90;;;;;;5053596;28;20348;-79
2022/02/17 01:35:37;;;;;;;;;;;12.20;99.90;;;;;;5053554;28;19913;-80
2022/02/17 01:38:03;;;;;;;;;;;12.20;99.90;;;;;;5053372;28;19962;-79
2022/02/17 01:40:29;;;;;;;;;;;12.20;99.90;;;;;;5053313;28;20015;-79
2022/02/17 01:42:54;;;;;;;;;;;12.20;99.90;;;;;;5053389;28;19908;-79
2022/02/17 01:45:20;;;;;;;;;;;12.10;99.90;;;;;;5053279;28;20368;-80
2022/02/17 01:47:46;;;;;;;;;;;12.10;99.90;;;;;;5053389;28;19916;-79
2022/02/17 01:50:12;;;;;;;;;;;12.10;99.90;;;;;;5053283;28;19935;-78
2022/02/17 01:52:37;;;;;;;;;;;12.10;99.90;;;;;;5053201;28;19909;-80
2022/02/17 01:55:03;;;;;;;;;;;12.00;99.90;;;;;;5057015;28;19909;-79
2022/02/17 01:57:30;;;;;;;;;;;11.80;99.90;;;;;;5057288;28;19908;-79
2022/02/17 01:59:56;;;;;;;;;;;11.80;99.90;;;;;;5057229;28;19948;-79
2022/02/17 02:02:22;;;;;;;;;;;11.80;99.90;;;;;;5057201;28;19909;-79
2022/02/17 02:04:47;;;;;;;;;;;11.80;99.90;;;;;;5057314;28;19916;-79
2022/02/17 02:07:13;;;;;;;;;;;11.90;99.90;;;;;;5057025;28;19913;-79
2022/02/17 02:09:39;;;;;;;;;;;11.80;99.90;;;;;;5055748;28;19913;-79
2022/02/17 02:12:06;;;;;;;;;;;11.90;99.90;;;;;;5057024;28;19909;-79
2022/02/17 02:14:32;;;;;;;;;;;12.00;99.90;;;;;;5055639;28;19916;-79
2022/02/17 02:16:57;;;;;;;;;;;12.00;99.90;;;;;;5067158;28;20524;-79
2022/02/17 02:19:23;;;;;;;;;;;12.00;99.90;;;;;;5059133;28;19909;-79
2022/02/17 02:21:48;;;;;;;;;;;12.00;99.90;;;;;;5076844;28;19908;-79
2022/02/17 02:24:14;;;;;;;;;;;12.00;99.90;;;;;;5076878;28;19908;-79
2022/02/17 02:26:40;;;;;;;;;;;12.10;99.90;;;;;;5076909;28;20380;-79
2022/02/17 02:29:06;;;;;;;;;;;12.00;99.90;;;;;;5076627;28;20385;-80
2022/02/17 02:31:31;;;;;;;;;;;12.10;99.90;;;;;;5076818;28;19909;-79
2022/02/17 02:33:57;;;;;;;;;;;12.00;99.90;;;;;;5058628;28;19962;-79
2022/02/17 02:36:22;;;;;;;;;;;11.90;99.90;;;;;;5076517;28;19915;-79
2022/02/17 02:38:48;;;;;;;;;;;11.80;99.90;;;;;;5058519;28;19913;-79
2022/02/17 02:41:14;;;;;;;;;;;11.90;99.90;;;;;;5076426;28;19909;-79
2022/02/17 02:43:39;;;;;;;;;;;11.90;99.90;;;;;;5076388;28;19908;-79
2022/02/17 02:46:06;;;;;;;;;;;12.00;99.90;;;;;;5058321;28;20376;-79
2022/02/17 02:48:32;;;;;;;;;;;11.90;99.90;;;;;;5076319;28;20396;-79
2022/02/17 02:50:57;;;;;;;;;;;11.90;99.90;;;;;;5076254;28;19913;-79
2022/02/17 02:53:23;;;;;;;;;;;11.90;99.90;;;;;;5076273;28;20254;-79
2022/02/17 02:55:49;;;;;;;;;;;12.00;99.90;;;;;;5076164;28;20475;-79
2022/02/17 02:58:16;;;;;;;;;;;12.00;99.90;;;;;;5058170;28;19909;-79
2022/02/17 03:00:43;;;;;;;;;;;12.00;99.90;;;;;;5076312;28;20289;-79
2022/02/17 03:03:08;;;;;;;;;;;12.00;99.90;;;;;;5076109;28;19920;-79
2022/02/17 03:05:34;;;;;;;;;;;12.10;99.90;;;;;;5075016;28;19908;-79
2022/02/17 03:08:00;;;;;;;;;;;12.10;99.90;;;;;;5076368;28;19912;-79
2022/02/17 03:10:30;;;;;;;;;;;12.10;99.90;;;;;;5076141;28;19909;-79
2022/02/17 03:12:56;;;;;;;;;;;12.00;99.90;;;;;;5057632;28;20373;-79
2022/02/17 03:15:22;;;;;;;;;;;12.00;99.90;;;;;;5075863;28;20426;-79
2022/02/17 03:17:48;;;;;;;;;;;12.10;99.90;;;;;;5075448;28;20013;-79
2022/02/17 03:20:14;;;;;;;;;;;12.10;99.90;;;;;;5057812;28;20007;-79
2022/02/17 03:22:41;;;;;;;;;;;12.10;99.90;;;;;;5057734;28;19999;-79
2022/02/17 03:25:08;;;;;;;;;;;12.00;99.90;;;;;;5075688;28;19909;-79
2022/02/17 03:27:33;;;;;;;;;;;12.00;99.90;;;;;;5075542;28;19912;-79
2022/02/17 03:29:59;;;;;;;;;;;12.00;99.90;;;;;;5076030;28;19996;-79
2022/02/17 03:32:25;;;;;;;;;;;12.10;99.90;;;;;;5057597;28;19908;-79
2022/02/17 03:34:50;;;;;;;;;;;12.00;99.90;;;;;;5057619;28;19908;-79
2022/02/17 03:37:16;;;;;;;;;;;11.90;99.90;;;;;;5057523;28;19942;-79
2022/02/17 03:39:41;;;;;;;;;;;12.00;99.90;;;;;;5075396;28;20265;-79
2022/02/17 03:42:07;;;;;;;;;;;11.90;99.90;;;;;;5075369;28;19913;-79
2022/02/17 03:44:33;;;;;;;;;;;11.90;99.90;;;;;;5075309;28;20276;-79
2022/02/17 03:46:59;;;;;;;;;;;11.90;99.90;;;;;;5057205;28;19920;-79
2022/02/17 03:49:24;;;;;;;;;;;11.90;99.90;;;;;;5075679;28;19908;-79
2022/02/17 03:51:50;;;;;;;;;;;11.80;99.90;;;;;;5075147;28;19931;-79
2022/02/17 03:54:16;;;;;;;;;;;11.80;99.90;;;;;;5075036;28;20391;-79
2022/02/17 03:56:42;;;;;;;;;;;11.80;99.90;;;;;;5075173;28;19909;-79
2022/02/17 03:59:10;;;;;;;;;;;11.70;99.90;;;;;;5075030;28;19913;-79
2022/02/17 04:01:37;;;;;;;;;;;11.70;99.90;;;;;;5075028;28;19958;-79
2022/02/17 04:04:04;;;;;;;;;;;11.70;99.90;;;;;;5074954;28;19909;-78
2022/02/17 04:06:30;;;;;;;;;;;11.70;99.90;;;;;;5074935;28;19913;-79
2022/02/17 04:08:56;;;;;;;;;;;11.60;99.90;;;;;;5074792;28;19957;-79
2022/02/17 04:11:21;;;;;;;;;;;11.50;99.90;;;;;;5074701;28;19909;-79
2022/02/17 04:13:49;;;;;;;;;;;11.50;99.90;;;;;;5074695;28;19958;-79
2022/02/17 04:16:18;;;;;;;;;;;11.60;99.90;;;;;;5053098;28;19999;-79
2022/02/17 04:18:44;;;;;;;;;;;11.50;99.90;;;;;;5053363;28;20383;-79
2022/02/17 04:21:10;;;;;;;;;;;11.50;99.90;;;;;;5054689;28;19968;-79
2022/02/17 04:23:35;;;;;;;;;;;11.50;99.90;;;;;;5053274;28;19956;-79
2022/02/17 04:26:01;;;;;;;;;;;11.40;99.90;;;;;;5054588;28;19959;-79
2022/02/17 04:28:27;;;;;;;;;;;11.30;99.90;;;;;;5054513;28;19913;-79
2022/02/17 04:30:52;;;;;;;;;;;11.30;99.90;;;;;;5054403;28;19923;-78
2022/02/17 04:33:18;;;;;;;;;;;11.30;99.90;;;;;;5054710;28;19919;-79
2022/02/17 04:35:44;;;;;;;;;;;11.30;99.90;;;;;;5054625;28;19995;-79
2022/02/17 04:38:09;;;;;;;;;;;11.20;99.90;;;;;;5054349;28;19912;-79
2022/02/17 04:43:19;;;;;;;;;;;11.30;99.90;;;;;;5054118;28;19975;-79
2022/02/17 04:45:45;;;;;;;;;;;11.20;99.90;;;;;;5052831;28;19944;-79
2022/02/17 04:48:10;;;;;;;;;;;11.20;99.90;;;;;;5054145;28;19909;-79
2022/02/17 04:50:36;;;;;;;;;;;11.00;99.90;;;;;;5054097;28;19909;-79
2022/02/17 04:53:02;;;;;;;;;;;11.00;99.90;;;;;;5054151;28;19908;-79
2022/02/17 04:55:27;;;;;;;;;;;11.00;99.90;;;;;;5054012;28;19915;-79
2022/02/17 04:57:53;;;;;;;;;;;11.00;99.90;;;;;;5054263;28;20372;-79
2022/02/17 05:00:18;;;;;;;;;;;10.90;99.90;;;;;;5053991;28;20011;-78
2022/02/17 05:02:44;;;;;;;;;;;10.90;99.90;;;;;;5052635;28;19963;-79
2022/02/17 05:05:10;;;;;;;;;;;10.80;99.90;;;;;;5054125;28;19920;-79
2022/02/17 05:07:35;;;;;;;;;;;10.80;99.90;;;;;;5054096;28;19913;-79
2022/02/17 05:10:01;;;;;;;;;;;10.80;99.90;;;;;;5052547;28;20003;-79
2022/02/17 05:12:26;;;;;;;;;;;10.80;99.90;;;;;;5052444;28;19992;-79
2022/02/17 05:14:52;;;;;;;;;;;10.80;99.90;;;;;;5053446;28;20330;-79
2022/02/17 05:17:17;;;;;;;;;;;10.70;99.90;;;;;;5066729;28;19928;-79
2022/02/17 05:19:43;;;;;;;;;;;10.60;99.90;;;;;;5073684;28;19908;-79
2022/02/17 05:22:09;;;;;;;;;;;10.70;99.90;;;;;;5073765;28;20304;-79
2022/02/17 05:24:34;;;;;;;;;;;10.60;99.90;;;;;;5073643;28;20357;-79
2022/02/17 05:27:00;;;;;;;;;;;10.50;99.90;;;;;;5073589;28;19914;-79
2022/02/17 05:29:26;;;;;;;;;;;10.50;99.90;;;;;;5055144;28;19909;-79
2022/02/17 05:31:51;;;;;;;;;;;10.40;99.90;;;;;;5073541;28;20448;-79
2022/02/17 05:34:20;;;;;;;;;;;10.40;99.90;;;;;;5073577;28;19908;-79
2022/02/17 05:36:46;;;;;;;;;;;10.40;99.90;;;;;;5055542;28;20383;-79
2022/02/17 05:39:11;;;;;;;;;;;10.40;99.90;;;;;;5055322;28;19995;-79
2022/02/17 05:41:37;;;;;;;;;;;10.30;99.90;;;;;;5055436;28;19956;-79
2022/02/17 05:44:03;;;;;;;;;;;10.30;99.90;;;;;;5073434;28;19936;-79
2022/02/17 05:46:29;;;;;;;;;;;10.30;99.90;;;;;;5055386;28;19920;-79
2022/02/17 05:48:55;;;;;;;;;;;10.30;99.90;;;;;;5073372;28;19908;-79
2022/02/17 05:51:20;;;;;;;;;;;10.30;99.90;;;;;;5055376;28;19909;-79
2022/02/17 05:53:46;;;;;;;;;;;10.20;99.90;;;;;;5055280;28;19908;-79
2022/02/17 05:56:12;;;;;;;;;;;10.20;99.90;;;;;;5073310;28;19931;-79
2022/02/17 05:58:38;;;;;;;;;;;10.10;99.90;;;;;;5055344;28;19913;-79
2022/02/17 06:01:03;;;;;;;;;;;10.10;99.90;;;;;;5073257;28;19909;-79
2022/02/17 06:03:29;;;;;;;;;;;10.10;99.90;;;;;;5073342;28;20049;-79
2022/02/17 06:05:55;;;;;;;;;;;10.00;99.90;;;;;;5073164;28;19958;-79
2022/02/17 06:08:21;;;;;;;;;;;9.80;99.90;;;;;;5073401;28;19908;-79
2022/02/17 06:10:47;;;;;;;;;;;9.80;99.90;;;;;;5073500;28;19970;-79
2022/02/17 06:13:13;;;;;;;;;;;9.80;99.90;;;;;;5073247;28;19936;-79
2022/02/17 06:15:38;;;;;;;;;;;9.70;99.90;;;;;;5073095;28;19912;-79
2022/02/17 06:18:04;;;;;;;;;;;9.70;99.90;;;;;;5072958;28;19970;-79
2022/02/17 06:20:30;;;;;;;;;;;9.70;99.90;;;;;;5073073;28;19909;-79
2022/02/17 06:22:55;;;;;;;;;;;9.60;99.90;;;;;;5073397;28;19908;-79
2022/02/17 06:25:21;;;;;;;;;;;9.50;99.90;;;;;;5073235;28;20357;-79
2022/02/17 06:27:48;;;;;;;;;;;9.50;99.90;;;;;;5072940;28;19920;-79
2022/02/17 06:30:13;;;;;;;;;;;9.50;99.90;;;;;;5055009;28;19909;-79
2022/02/17 06:32:49;;;;;;;;;;;9.50;99.90;;;;;;5055008;28;19909;-79
2022/02/17 06:35:19;;;;;;;;;;;9.60;99.90;;;;;;5072948;28;20377;-79
2022/02/17 06:37:45;;;;;;;;;;;9.40;99.90;;;;;;5054974;28;20325;-79
2022/02/17 06:40:11;;;;;;;;;;;9.40;99.90;;;;;;5073440;28;19951;-79
2022/02/17 06:42:36;;;;;;;;;;;9.30;99.90;;;;;;5076461;28;19909;-78
2022/02/17 06:45:02;;;;;;;;;;;9.30;99.90;;;;;;5076450;28;19908;-79
2022/02/17 06:47:28;;;;;;;;;;;9.20;99.90;;;;;;5076329;28;19916;-79
2022/02/17 06:49:54;;;;;;;;;;;9.20;99.90;;;;;;5076440;28;19934;-79
2022/02/17 06:52:19;;;;;;;;;;;9.30;99.90;;;;;;5076344;28;20360;-79
2022/02/17 06:54:45;;;;;;;;;;;9.20;99.90;;;;;;5076506;28;19916;-79
2022/02/17 06:57:10;;;;;;;;;;;9.20;99.90;;;;;;5076250;28;19943;-79
2022/02/17 06:59:36;;;;;;;;;;;9.20;99.90;;;;;;5076199;28;19916;-79
2022/02/17 07:02:02;;;;;;;;;;;9.20;99.90;;;;;;5076512;28;19940;-79
2022/02/17 07:04:27;;;;;;;;;;;9.20;99.90;;;;;;5076659;28;19908;-79
2022/02/17 07:06:53;;;;;;;;;;;9.20;99.90;;;;;;5076105;28;19912;-79
2022/02/17 07:09:19;;;;;;;;;;;9.20;99.90;;;;;;5076028;28;19962;-79
2022/02/17 07:11:44;;;;;;;;;;;9.20;99.90;;;;;;5076349;28;20383;-78
2022/02/17 07:14:10;;;;;;;;;;;9.00;99.90;;;;;;5076075;28;19908;-79
2022/02/17 07:16:36;;;;;;;;;;;9.00;99.90;;;;;;5054394;28;20263;-79
2022/02/17 07:19:02;;;;;;;;;;;9.00;99.90;;;;;;5054549;28;19915;-79
2022/02/17 07:21:28;;;;;;;;;;;9.00;99.90;;;;;;5055829;28;20361;-79
2022/02/17 07:23:53;;;;;;;;;;;9.00;99.90;;;;;;5055753;28;20354;-79
2022/02/17 07:26:19;;;;;;;;;;;9.10;99.90;;;;;;5055636;28;19927;-79
2022/02/17 07:28:44;;;;;;;;;;;9.10;99.90;;;;;;5054335;28;19932;-79
2022/02/17 07:31:13;;;;;;;;;;;9.10;99.90;;;;;;5056078;28;19909;-79
2022/02/17 07:33:39;;;;;;;;;;;9.20;99.90;;;;;;5055868;28;19962;-79
2022/02/17 07:36:08;;;;;;;;;;;9.30;99.90;;;;;;5055549;28;19913;-79
2022/02/17 07:38:34;;;;;;;;;;;9.40;99.90;;;;;;5055433;28;19909;-79
2022/02/17 07:40:59;;;;;;;;;;;9.60;99.90;;;;;;5055361;28;19909;-79
2022/02/17 07:43:25;;;;;;;;;;;9.70;99.90;;;;;;5055542;28;19959;-79
2022/02/17 07:45:51;;;;;;;;;;;9.80;99.90;;;;;;5055477;28;19912;-79
2022/02/17 07:48:16;;;;;;;;;;;10.00;99.90;;;;;;5054009;28;20361;-79
2022/02/17 07:50:42;;;;;;;;;;;10.10;99.90;;;;;;5054961;28;19915;-79
2022/02/17 07:53:07;;;;;;;;;;;10.30;99.90;;;;;;5054980;28;19909;-79
2022/02/17 07:55:34;;;;;;;;;;;10.50;99.90;;;;;;5055176;28;19909;-79
2022/02/17 07:58:04;;;;;;;;;;;10.70;99.90;;;;;;5055437;28;20328;-79
2022/02/17 08:00:30;;;;;;;;;;;10.80;99.90;;;;;;5055143;28;19935;-79
2022/02/17 08:02:56;;;;;;;;;;;11.00;99.90;;;;;;5055038;28;19909;-79
2022/02/17 08:05:21;;;;;;;;;;;11.30;99.90;;;;;;5053672;28;20369;-79
2022/02/17 08:07:47;;;;;;;;;;;11.60;99.90;;;;;;5055029;28;19919;-79
2022/02/17 08:10:13;;;;;;;;;;;11.90;99.90;;;;;;5053534;28;19909;-79
2022/02/17 08:12:39;;;;;;;;;;;12.10;99.90;;;;;;5054874;28;19912;-79
2022/02/17 08:15:06;;;;;;;;;;;12.40;99.90;;;;;;5055002;28;19916;-79
2022/02/17 08:17:35;;;;;;;;;;;12.60;99.90;;;;;;5069765;28;19921;-79
2022/02/17 08:20:01;;;;;;;;;;;12.80;99.90;;;;;;5056663;28;20015;-79
2022/02/17 08:22:27;;;;;;;;;;;12.20;99.90;;;;;;5056658;28;19944;-79
2022/02/17 08:24:52;;;;;;;;;;;12.20;99.90;;;;;;5074516;28;19991;-79
2022/02/17 08:27:18;;;;;;;;;;;12.50;99.90;;;;;;5074658;28;19966;-80
2022/02/17 08:29:43;;;;;;;;;;;12.70;99.90;;;;;;5074351;28;19913;-79
2022/02/17 08:32:09;;;;;;;;;;;12.70;99.90;;;;;;5056508;28;20363;-79
2022/02/17 08:34:34;;;;;;;;;;;13.20;99.90;;;;;;5074409;28;19954;-80
2022/02/17 08:37:01;;;;;;;;;;;13.40;99.90;;;;;;5074350;28;19999;-79
2022/02/17 08:39:27;;;;;;;;;;;13.70;99.90;;;;;;5074525;28;20003;-79
2022/02/17 08:41:52;;;;;;;;;;;13.70;99.90;;;;;;5074441;28;20015;-79
2022/02/17 08:44:18;;;;;;;;;;;14.10;99.90;;;;;;5074394;28;19966;-80
2022/02/17 08:46:44;;;;;;;;;;;13.90;99.90;;;;;;5073990;28;20367;-79
2022/02/17 08:49:09;;;;;;;;;;;14.40;99.90;;;;;;5074143;28;20368;-80
2022/02/17 08:51:37;;;;;;;;;;;14.70;99.90;;;;;;5056094;28;19953;-79
2022/02/17 08:54:03;;;;;;;;;;;14.50;99.90;;;;;;5056034;28;19916;-80
2022/02/17 08:56:29;;;;;;;;;;;15.10;99.90;;;;;;5074545;28;19912;-79
2022/02/17 08:58:56;;;;;;;;;;;15.80;99.90;;;;;;5056057;28;19916;-79
2022/02/17 09:01:22;;;;;;;;;;;15.80;99.90;;;;;;5074094;28;19913;-79
2022/02/17 09:03:47;;;;;;;;;;;15.90;99.90;;;;;;5073224;28;19954;-79
2022/02/17 09:06:14;;;;;;;;;;;15.30;99.90;;;;;;5073870;28;19978;-79
2022/02/17 09:08:40;;;;;;;;;;;16.40;99.90;;;;;;5073951;28;19935;-80
2022/02/17 09:11:06;;;;;;;;;;;16.30;99.90;;;;;;5073856;28;19955;-80
2022/02/17 09:13:32;;;;;;;;;;;16.60;99.90;;;;;;5073924;28;19948;-79
2022/02/17 09:15:58;;;;;;;;;;;17.30;99.90;;;;;;5073593;28;20352;-79
2022/02/17 09:18:24;;;;;;;;;;;17.80;99.90;;;;;;5073773;28;19908;-80
2022/02/17 09:20:50;;;;;;;;;;;18.30;99.90;;;;;;5073668;28;20426;-80
2022/02/17 09:23:15;;;;;;;;;;;19.40;99.10;;;;;;5073689;28;19908;-80
2022/02/17 09:25:41;;;;;;;;;;;18.00;99.20;;;;;;5073834;28;19915;-80
2022/02/17 09:28:07;;;;;;;;;;;18.40;98.90;;;;;;5073803;28;19995;-80
2022/02/17 09:30:32;;;;;;;;;;;18.70;98.50;;;;;;5073598;28;19908;-80
2022/02/17 09:32:58;;;;;;;;;;;17.90;98.10;;;;;;5073758;28;19963;-80
2022/02/17 09:35:27;;;;;;;;;;;18.60;99.00;;;;;;5073627;28;20319;-80
2022/02/17 09:37:52;;;;;;;;;;;19.10;97.10;;;;;;5073520;28;19958;-79
2022/02/17 09:40:20;;;;;;;;;;;20.10;95.80;;;;;;5073557;28;20391;-80
2022/02/17 09:42:46;;;;;;;;;;;19.70;95.90;;;;;;5055501;28;19948;-80
2022/02/17 09:45:12;;;;;;;;;;;20.60;94.70;;;;;;5073476;28;19915;-79
2022/02/17 09:47:39;;;;;;;;;;;20.20;93.60;;;;;;5073479;28;19912;-80
2022/02/17 09:50:09;;;;;;;;;;;20.50;93.60;;;;;;5073442;28;19940;-80
2022/02/17 09:52:35;;;;;;;;;;;20.70;92.70;;;;;;5055354;28;19938;-80
2022/02/17 09:55:01;;;;;;;;;;;22.10;91.50;;;;;;5073512;28;19916;-80
2022/02/17 09:57:28;;;;;;;;;;;21.50;91.70;;;;;;5073425;28;19908;-80
2022/02/17 09:59:53;;;;;;;;;;;23.00;89.70;;;;;;5055366;28;19908;-80
2022/02/17 10:02:23;;;;;;;;;;;23.80;88.30;;;;;;5073344;28;19962;-80
2022/02/17 10:04:53;;;;;;;;;;;23.30;83.50;;;;;;5073390;28;19912;-80
2022/02/17 10:07:32;;;;;;;;;;;22.70;83.60;;;;;;5055221;28;19960;-80
2022/02/17 10:10:03;;;;;;;;;;;23.00;82.80;;;;;;5073259;28;19990;-80
2022/02/17 10:12:48;;;;;;;;;;;23.40;78.90;;;;;;5073203;28;19962;-80
2022/02/17 10:15:23;;;;;;;;;;;21.20;82.10;;;;;;5075466;28;19950;-80
2022/02/17 10:18:05;;;;;;;;;;;21.90;80.70;;;;;;5058814;28;19924;-80
2022/02/17 10:20:52;;;;;;;;;;;20.90;80.70;;;;;;5076957;28;19909;-79
2022/02/17 10:23:19;;;;;;;;;;;21.40;82.50;;;;;;5058959;28;19909;-80
2022/02/17 10:25:55;;;;;;;;;;;21.90;83.60;;;;;;5076901;28;19908;-79
2022/02/17 10:28:21;;;;;;;;;;;22.20;79.00;;;;;;5076838;28;19959;-79
2022/02/17 10:30:47;;;;;;;;;;;20.20;83.80;;;;;;5077034;28;19908;-79
2022/02/17 10:33:12;;;;;;;;;;;18.70;88.80;;;;;;5076982;28;19908;-79
2022/02/17 10:35:44;;;;;;;;;;;19.70;88.60;;;;;;5076693;28;20083;-80
2022/02/17 10:38:17;;;;;;;;;;;20.70;86.80;;;;;;5076745;28;20276;-79
2022/02/17 10:40:49;;;;;;;;;;;20.00;82.60;;;;;;5058404;28;19908;-79
2022/02/17 10:43:14;;;;;;;;;;;20.20;82.00;;;;;;5076723;28;19909;-79
2022/02/17 10:45:44;;;;;;;;;;;21.20;81.60;;;;;;5076989;28;19908;-81
2022/02/17 10:48:13;;;;;;;;;;;21.30;78.90;;;;;;5076385;28;19912;-80
2022/02/17 10:50:38;;;;;;;;;;;21.10;80.40;;;;;;5076409;28;19999;-77
2022/02/17 10:53:14;;;;;;;;;;;22.70;78.60;;;;;;5076268;28;19969;-77
2022/02/17 10:55:49;;;;;;;;;;;21.60;77.90;;;;;;5076505;28;19909;-78
2022/02/17 10:58:15;;;;;;;;;;;23.00;75.90;;;;;;5076416;28;19908;-77
2022/02/17 11:00:43;;;;;;;;;;;22.30;74.70;;;;;;5076259;28;19944;-76
2022/02/17 11:03:09;;;;;;;;;;;23.60;73.10;;;;;;5058210;28;20261;-77
2022/02/17 11:05:38;;;;;;;;;;;25.00;71.30;;;;;;5076171;28;19962;-78
2022/02/17 11:08:04;;;;;;;;;;;26.70;70.00;;;;;;5076175;28;19913;-77
2022/02/17 11:10:30;;;;;;;;;;;24.90;66.10;;;;;;5058160;28;19909;-78
2022/02/17 11:12:58;;;;;;;;;;;24.00;67.10;;;;;;5075965;28;19932;-77
2022/02/17 11:15:23;;;;;;;;;;;22.70;68.70;;;;;;5057977;28;19921;-77
2022/02/17 11:17:49;;;;;;;;;;;23.70;68.40;;;;;;5075524;28;19931;-77
2022/02/17 11:20:18;;;;;;;;;;;22.70;69.10;;;;;;5076087;28;19931;-77
2022/02/17 11:22:50;;;;;;;;;;;23.10;68.90;;;;;;5075912;28;20348;-78
2022/02/17 11:25:16;;;;;;;;;;;23.60;68.70;;;;;;5075752;28;19909;-77
2022/02/17 11:27:56;;;;;;;;;;;24.10;68.00;;;;;;5075165;28;19948;-77
2022/02/17 11:30:22;;;;;;;;;;;24.70;65.20;;;;;;5075764;28;20369;-77
2022/02/17 11:33:08;;;;;;;;;;;27.10;63.60;;;;;;5075631;28;19916;-77
2022/02/17 11:35:34;;;;;;;;;;;26.70;60.80;;;;;;5057446;28;19909;-77
2022/02/17 11:37:59;;;;;;;;;;;26.60;60.00;;;;;;5075493;28;19909;-77
2022/02/17 11:40:25;;;;;;;;;;;27.10;61.70;;;;;;5075537;28;20002;-77
2022/02/17 11:43:04;;;;;;;;;;;25.80;59.40;;;;;;5075446;28;19919;-76
2022/02/17 11:45:42;;;;;;;;;;;25.50;58.80;;;;;;5075388;28;19908;-78
2022/02/17 11:48:12;;;;;;;;;;;27.70;59.20;;;;;;5075587;28;19938;-77
2022/02/17 11:50:39;;;;;;;;;;;27.70;57.40;;;;;;5074921;28;20391;-77
2022/02/17 11:53:26;;;;;;;;;;;27.30;56.60;;;;;;5057175;28;19948;-76
2022/02/17 11:55:52;;;;;;;;;;;27.60;56.80;;;;;;5057191;28;19961;-78
2022/02/17 11:58:37;;;;;;;;;;;27.20;56.70;;;;;;5057234;28;19908;-77
2022/02/17 12:01:21;;;;;;;;;;;26.50;56.30;;;;;;5075037;28;19908;-77
2022/02/17 12:03:59;;;;;;;;;;;26.30;56.30;;;;;;5057053;28;19909;-76
2022/02/17 12:06:47;;;;;;;;;;;26.30;55.30;;;;;;5074844;28;19962;-77
2022/02/17 12:09:32;;;;;;;;;;;25.60;59.00;;;;;;5075257;28;19908;-76
2022/02/17 12:12:16;;;;;;;;;;;27.70;56.50;;;;;;5074846;28;19908;-78
2022/02/17 12:14:51;;;;;;;;;;;30.40;52.20;;;;;;5074777;28;19908;-77
2022/02/17 12:17:24;;;;;;;;;;;29.70;50.80;;;;;;5074551;28;19955;-76
2022/02/17 12:20:00;;;;;;;;;;;31.00;50.00;;;;;;5074844;28;20276;-76
2022/02/17 12:22:26;;;;;;;;;;;29.50;50.80;;;;;;5074708;28;19908;-77
2022/02/17 12:24:51;;;;;;;;;;;26.10;51.70;;;;;;5056680;28;20279;-77
2022/02/17 12:27:21;;;;;;;;;;;24.30;56.40;;;;;;5074515;28;19919;-76
2022/02/17 12:29:47;;;;;;;;;;;23.50;59.00;;;;;;5074604;28;19947;-77
2022/02/17 12:32:17;;;;;;;;;;;22.30;60.20;;;;;;5074463;28;20277;-77
2022/02/17 12:34:42;;;;;;;;;;;20.40;64.30;;;;;;5074362;28;19915;-76
2022/02/17 12:37:17;;;;;;;;;;;19.50;66.40;;;;;;5074685;28;20284;-77
2022/02/17 12:39:43;;;;;;;;;;;19.00;67.30;;;;;;5074457;28;19908;-79
2022/02/17 12:42:10;;;;;;;;;;;18.60;69.40;;;;;;5074277;28;20414;-78
2022/02/17 12:44:39;;;;;;;;;;;18.50;71.50;;;;;;5056320;28;19909;-79
2022/02/17 12:47:15;;;;;;;;;;;18.70;71.40;;;;;;5056180;28;19960;-79
2022/02/17 12:49:40;;;;;;;;;;;18.20;72.50;;;;;;5055893;28;19908;-79
2022/02/17 12:52:06;;;;;;;;;;;18.00;74.30;;;;;;5074128;28;19909;-79
2022/02/17 12:54:32;;;;;;;;;;;18.00;75.40;;;;;;5074034;28;19916;-78
2022/02/17 12:57:07;;;;;;;;;;;18.10;76.50;;;;;;5074002;28;19909;-79
2022/02/17 12:59:33;;;;;;;;;;;17.70;77.60;;;;;;5074044;28;19909;-79
2022/02/17 13:01:59;;;;;;;;;;;18.30;76.90;;;;;;5074102;28;19918;-79
2022/02/17 13:04:25;;;;;;;;;;;18.00;77.00;;;;;;5073965;28;20372;-79
2022/02/17 13:06:54;;;;;;;;;;;17.90;76.50;;;;;;5055863;28;19912;-79
2022/02/17 13:09:20;;;;;;;;;;;17.90;78.30;;;;;;5073899;28;19920;-79
2022/02/17 13:11:53;;;;;;;;;;;19.20;75.10;;;;;;5073960;28;19915;-79
2022/02/17 13:14:23;;;;;;;;;;;19.00;73.30;;;;;;5073957;28;19919;-79
2022/02/17 13:16:50;;;;;;;;;;;19.30;73.40;;;;;;5052275;28;19920;-80
2022/02/17 13:19:28;;;;;;;;;;;19.60;70.70;;;;;;5053754;28;19916;-79
2022/02/17 13:21:56;;;;;;;;;;;19.60;68.80;;;;;;5051787;28;20131;-79
2022/02/17 13:24:25;;;;;;;;;;;20.50;67.70;;;;;;5053765;28;19945;-79
2022/02/17 13:26:51;;;;;;;;;;;22.00;64.60;;;;;;5052273;28;19913;-79
2022/02/17 13:29:18;;;;;;;;;;;22.80;63.10;;;;;;5052330;28;19958;-79
2022/02/17 13:31:43;;;;;;;;;;;21.90;64.40;;;;;;5052321;28;20459;-80
2022/02/17 13:34:13;;;;;;;;;;;21.20;65.50;;;;;;5053551;28;19956;-80
2022/02/17 13:36:41;;;;;;;;;;;20.70;65.80;;;;;;5052304;28;19959;-79
2022/02/17 13:39:15;;;;;;;;;;;23.30;63.80;;;;;;5053770;28;19916;-79
2022/02/17 13:41:56;;;;;;;;;;;25.40;60.30;;;;;;5053714;28;19943;-77
2022/02/17 13:44:34;;;;;;;;;;;24.70;58.30;;;;;;5053752;28;19912;-77
2022/02/17 13:47:04;;;;;;;;;;;25.30;58.10;;;;;;5053381;28;19920;-77
2022/02/17 13:49:29;;;;;;;;;;;25.40;56.60;;;;;;5054813;28;19919;-77
2022/02/17 13:51:55;;;;;;;;;;;24.50;58.20;;;;;;5057561;28;19909;-78
2022/02/17 13:54:21;;;;;;;;;;;23.80;58.80;;;;;;5057471;28;19974;-76
2022/02/17 13:56:46;;;;;;;;;;;21.90;62.10;;;;;;5058052;28;20056;-76
2022/02/17 13:59:13;;;;;;;;;;;20.70;64.90;;;;;;5057396;28;19916;-76
2022/02/17 14:01:40;;;;;;;;;;;20.20;65.30;;;;;;5057572;28;19909;-76
2022/02/17 14:04:06;;;;;;;;;;;20.80;66.60;;;;;;5056016;28;19972;-77
2022/02/17 14:06:32;;;;;;;;;;;20.20;65.80;;;;;;5057278;28;19913;-77
2022/02/17 14:08:58;;;;;;;;;;;19.40;68.70;;;;;;5057281;28;19940;-76
2022/02/17 14:11:24;;;;;;;;;;;19.70;67.50;;;;;;5057233;28;20377;-77
2022/02/17 14:13:50;;;;;;;;;;;18.90;68.30;;;;;;5057310;28;19909;-77
2022/02/17 14:16:16;;;;;;;;;;;18.70;69.90;;;;;;5061368;28;20000;-77
2022/02/17 14:18:41;;;;;;;;;;;18.40;70.70;;;;;;5077404;28;20257;-77
2022/02/17 14:21:08;;;;;;;;;;;18.10;71.30;;;;;;5076966;28;19908;-76